Time;durP1;ratioP1;P1;durP2;ratioP2;P2;SDS_P1;SDS_P2;PMS_P1;PMS_P2;Temp;Humidity;BMP_temperature;BMP_pressure;BME280_temperature;BME280_humidity;BME280_pressure;Samples;Min_cycle;Max_cycle;Signal;HPM_P1;HPM_P2
2023/06/23 00:02:14;;;;;;;8.70;7.80;;;;;;;20.13;97.71;94973.88;5089841;28;20505;-45
2023/06/23 00:04:41;;;;;;;13.48;8.35;;;;;;;20.11;97.55;94981.03;5090188;28;20571;-44
2023/06/23 00:07:08;;;;;;;11.35;7.82;;;;;;;20.10;97.98;94985.44;5090435;28;20543;-46
2023/06/23 00:09:37;;;;;;;13.60;8.32;;;;;;;20.07;98.01;94980.63;5089700;28;20197;-45
2023/06/23 00:12:07;;;;;;;9.50;8.50;;;;;;;20.04;98.10;94979.22;5089902;28;20182;-44
2023/06/23 00:14:34;;;;;;;11.52;8.82;;;;;;;20.03;98.40;94977.63;5089934;28;20656;-47
2023/06/23 00:17:00;;;;;;;12.90;9.13;;;;;;;20.03;98.36;94982.81;5090473;28;20182;-45
2023/06/23 00:19:31;;;;;;;10.55;8.68;;;;;;;20.01;98.52;94979.59;5094106;28;20209;-46
2023/06/23 00:21:58;;;;;;;12.10;8.23;;;;;;;19.98;98.63;94973.97;5090460;28;20594;-45
2023/06/23 00:24:27;;;;;;;10.93;7.65;;;;;;;19.94;98.63;94981.31;5090077;28;20197;-45
2023/06/23 00:26:53;;;;;;;10.98;8.48;;;;;;;19.96;98.56;94983.75;5090444;28;20257;-44
2023/06/23 00:29:22;;;;;;;9.60;8.35;;;;;;;19.95;98.45;94974.34;5091787;28;20186;-45
2023/06/23 00:31:51;;;;;;;11.20;8.43;;;;;;;19.92;98.28;94980.72;5091119;28;20640;-46
2023/06/23 00:34:18;;;;;;;12.52;9.13;;;;;;;19.89;98.54;94975.91;5090661;28;20659;-44
2023/06/23 00:36:48;;;;;;;11.85;9.20;;;;;;;19.86;98.53;94973.69;5090350;28;20797;-46
2023/06/23 00:39:16;;;;;;;14.55;8.38;;;;;;;19.83;98.80;94970.66;5089337;28;20221;-44
2023/06/23 00:41:45;;;;;;;12.73;9.25;;;;;;;19.81;99.18;94976.03;5089744;28;20681;-44
2023/06/23 00:44:12;;;;;;;11.40;9.63;;;;;;;19.74;99.24;94965.59;5089837;28;20189;-49
2023/06/23 00:46:43;;;;;;;14.68;9.60;;;;;;;19.76;99.64;94973.19;5089376;28;20194;-44
2023/06/23 00:49:10;;;;;;;16.30;9.50;;;;;;;19.73;99.84;94974.38;5089675;28;20189;-45
2023/06/23 00:51:38;;;;;;;11.57;8.95;;;;;;;19.71;100.00;94978.16;5093054;28;20633;-45
2023/06/23 00:54:06;;;;;;;12.18;9.05;;;;;;;19.70;100.00;94971.38;5093478;28;20197;-46
2023/06/23 00:56:34;;;;;;;11.03;9.30;;;;;;;19.67;100.00;94969.94;5093746;28;20181;-46
2023/06/23 00:59:02;;;;;;;11.83;9.37;;;;;;;19.67;100.00;94974.31;5095181;28;20227;-44
2023/06/23 01:01:31;;;;;;;10.93;9.53;;;;;;;19.57;100.00;94961.63;5094113;28;20189;-45
2023/06/23 01:03:59;;;;;;;12.57;10.37;;;;;;;19.62;100.00;94961.09;5094038;28;20560;-45
2023/06/23 01:06:37;;;;;;;12.10;10.15;;;;;;;19.65;100.00;94976.31;5093290;28;20198;-45
2023/06/23 01:09:17;;;;;;;10.30;9.02;;;;;;;19.66;100.00;94973.53;5092969;28;20193;-46
2023/06/23 01:11:58;;;;;;;12.50;8.98;;;;;;;19.65;100.00;94971.91;5093728;28;20182;-46
2023/06/23 01:14:32;;;;;;;9.27;8.37;;;;;;;19.60;100.00;94969.03;5093102;28;20221;-44
2023/06/23 01:17:04;;;;;;;9.20;8.27;;;;;;;19.58;100.00;94968.44;5093268;28;20196;-43
2023/06/23 01:19:53;;;;;;;12.53;9.60;;;;;;;19.58;100.00;94965.03;5093300;28;20399;-43
2023/06/23 01:22:28;;;;;;;9.80;8.90;;;;;;;19.63;100.00;94973.09;5093543;28;20224;-44
2023/06/23 01:25:06;;;;;;;10.20;8.70;;;;;;;19.62;100.00;94966.28;5093183;28;20326;-44
2023/06/23 01:27:59;;;;;;;10.68;8.88;;;;;;;19.59;100.00;94970.03;5093448;28;20246;-45
2023/06/23 01:30:32;;;;;;;10.63;9.05;;;;;;;19.55;100.00;94969.59;5093250;28;20225;-44
2023/06/23 01:33:05;;;;;;;11.27;9.00;;;;;;;19.54;100.00;94969.78;5093160;28;20556;-45
2023/06/23 01:35:36;;;;;;;9.83;8.73;;;;;;;19.54;100.00;94965.41;5092906;28;20614;-45
2023/06/23 01:38:07;;;;;;;12.05;9.13;;;;;;;19.53;100.00;94963.78;5092968;28;20182;-46
2023/06/23 01:40:35;;;;;;;10.83;9.83;;;;;;;19.53;100.00;94963.78;5092824;28;20225;-45
2023/06/23 01:43:07;;;;;;;13.45;9.93;;;;;;;19.50;100.00;94958.97;5092504;28;20193;-44
2023/06/23 01:45:39;;;;;;;10.60;9.43;;;;;;;19.49;100.00;94966.94;5093116;28;20280;-46
2023/06/23 01:48:09;;;;;;;17.63;9.80;;;;;;;19.43;100.00;94952.94;5092838;28;20236;-44
2023/06/23 01:50:39;;;;;;;10.80;9.17;;;;;;;19.48;100.00;94962.75;5092738;28;20569;-46
2023/06/23 01:53:08;;;;;;;11.07;8.70;;;;;;;19.49;100.00;94966.94;5092378;28;20199;-44
2023/06/23 01:55:39;;;;;;;10.23;9.00;;;;;;;19.51;100.00;94960.56;5092560;28;20190;-44
2023/06/23 01:58:07;;;;;;;11.77;9.17;;;;;;;19.45;100.00;94966.50;5092472;28;20686;-44
2023/06/23 02:00:37;;;;;;;11.13;9.30;;;;;;;19.44;100.00;94966.72;5092694;28;20218;-48
2023/06/23 02:03:05;;;;;;;12.75;9.68;;;;;;;19.37;100.00;94969.22;5094614;28;20197;-45
2023/06/23 02:05:35;;;;;;;10.10;9.10;;;;;;;19.39;100.00;94979.44;5093177;28;20564;-53
2023/06/23 02:08:03;;;;;;;13.33;9.47;;;;;;;18.98;100.00;94917.78;5092326;28;20189;-44
2023/06/23 02:10:31;;;;;;;9.57;8.57;;;;;;;19.35;100.00;94981.59;5092343;28;20286;-46
2023/06/23 02:12:58;;;;;;;11.90;8.83;;;;;;;19.30;100.00;94981.34;5092401;28;20598;-45
2023/06/23 02:15:27;;;;;;;12.50;9.43;;;;;;;19.26;100.00;94974.91;5092381;28;20220;-46
2023/06/23 02:17:57;;;;;;;13.37;8.70;;;;;;;19.24;100.00;94969.91;5093007;28;20181;-46
2023/06/23 02:20:24;;;;;;;12.57;9.00;;;;;;;19.20;100.00;94966.06;5099344;28;20225;-43
2023/06/23 02:22:53;;;;;;;10.70;8.93;;;;;;;19.16;100.00;94974.41;5092359;28;20193;-44
2023/06/23 02:25:21;;;;;;;9.63;8.63;;;;;;;19.14;100.00;94974.59;5091933;28;20782;-46
2023/06/23 02:27:49;;;;;;;10.63;9.23;;;;;;;19.12;100.00;94970.56;5092639;28;20189;-44
2023/06/23 02:30:18;;;;;;;16.03;9.27;;;;;;;19.12;100.00;94967.97;5092070;28;20757;-45
2023/06/23 02:32:45;;;;;;;10.60;9.30;;;;;;;19.11;100.00;94971.56;5092081;28;20217;-45
2023/06/23 02:35:14;;;;;;;12.68;9.30;;;;;;;19.05;100.00;94965.31;5091942;28;20220;-45
2023/06/23 02:37:46;;;;;;;12.07;8.77;;;;;;;19.11;100.00;94968.97;5091865;28;20614;-45
2023/06/23 02:40:16;;;;;;;10.50;9.40;;;;;;;19.11;100.00;94980.13;5091498;28;20236;-46
2023/06/23 02:42:48;;;;;;;9.07;8.17;;;;;;;19.11;100.00;94980.13;5091765;28;20814;-46
2023/06/23 02:45:19;;;;;;;11.50;8.97;;;;;;;19.09;100.00;94983.91;5091625;28;20185;-46
2023/06/23 02:47:50;;;;;;;11.30;8.80;;;;;;;19.06;100.00;94982.47;5091890;28;20188;-45
2023/06/23 02:50:23;;;;;;;10.67;8.70;;;;;;;19.02;100.00;94969.06;5092109;28;20519;-45
2023/06/23 02:52:56;;;;;;;11.13;8.97;;;;;;;19.05;100.00;94973.09;5092143;28;20182;-44
2023/06/23 02:55:24;;;;;;;15.47;9.00;;;;;;;19.01;100.00;94964.88;5091986;28;20190;-46
2023/06/23 02:57:53;;;;;;;12.90;9.77;;;;;;;19.03;100.00;94962.09;5091890;28;20243;-46
2023/06/23 03:00:23;;;;;;;9.77;8.77;;;;;;;19.07;100.00;94965.13;5091446;28;20278;-47
2023/06/23 03:02:56;;;;;;;10.87;8.33;;;;;;;19.05;100.00;94960.13;5091761;28;20281;-45
2023/06/23 03:05:26;;;;;;;12.47;8.93;;;;;;;19.07;100.00;94954.75;5091358;28;20251;-45
2023/06/23 03:07:54;;;;;;;11.37;9.67;;;;;;;19.09;100.00;94960.59;5091859;28;20205;-46
2023/06/23 03:10:21;;;;;;;11.47;9.83;;;;;;;19.05;100.00;94945.38;5091606;28;20194;-45
2023/06/23 03:12:48;;;;;;;11.03;9.17;;;;;;;18.90;100.00;94923.88;5091479;28;20217;-44
2023/06/23 03:15:16;;;;;;;11.60;8.80;;;;;;;19.19;100.00;94953.28;5092187;28;20201;-47
2023/06/23 03:17:45;;;;;;;11.40;8.90;;;;;;;19.23;100.00;94964.91;5091333;28;20198;-45
2023/06/23 03:20:19;;;;;;;13.27;10.63;;;;;;;19.27;100.00;94958.38;5091210;28;20217;-45
2023/06/23 03:22:53;;;;;;;14.10;10.10;;;;;;;19.31;100.00;94967.38;5091506;28;20243;-45
2023/06/23 03:25:26;;;;;;;12.77;10.07;;;;;;;19.34;100.00;94966.19;5090419;28;20201;-46
2023/06/23 03:27:56;;;;;;;14.00;9.40;;;;;;;19.21;100.00;94940.94;5091365;28;20629;-43
2023/06/23 03:30:31;;;;;;;15.27;10.13;;;;;;;19.41;100.00;94965.28;5089408;28;20186;-48
2023/06/23 03:33:02;;;;;;;12.33;9.97;;;;;;;19.45;100.00;94963.13;5092643;28;20736;-48
2023/06/23 03:35:34;;;;;;;11.77;9.23;;;;;;;19.48;100.00;94973.13;5089477;28;20189;-46
2023/06/23 03:38:05;;;;;;;13.43;9.27;;;;;;;19.47;100.00;94961.13;5091050;28;20190;-45
2023/06/23 03:40:37;;;;;;;12.07;9.83;;;;;;;19.51;100.00;94955.38;5091282;28;20229;-46
2023/06/23 03:43:10;;;;;;;15.40;9.98;;;;;;;19.61;100.00;94962.09;5095932;28;20238;-46
2023/06/23 03:45:40;;;;;;;13.18;9.48;;;;;;;19.60;99.94;94948.28;5092447;28;20182;-47
2023/06/23 03:48:10;;;;;;;17.95;9.32;;;;;;;19.78;99.85;94966.84;5094114;28;20190;-45
2023/06/23 03:50:42;;;;;;;12.60;9.27;;;;;;;19.86;99.24;94967.66;5091747;28;20182;-45
2023/06/23 03:53:14;;;;;;;9.68;8.25;;;;;;;19.96;98.79;94968.97;5090651;28;20205;-45
2023/06/23 03:55:42;;;;;;;9.75;8.75;;;;;;;20.03;98.49;94969.81;5090648;28;20193;-46
2023/06/23 03:58:11;;;;;;;9.98;8.98;;;;;;;20.13;97.79;94972.09;5091779;28;20193;-46
2023/06/23 04:00:40;;;;;;;12.30;9.10;;;;;;;20.20;97.15;94974.72;5094378;28;20226;-46
2023/06/23 04:03:08;;;;;;;13.85;9.43;;;;;;;20.23;96.69;94964.75;5095800;28;20201;-46
2023/06/23 04:05:39;;;;;;;11.93;9.25;;;;;;;20.39;96.26;94978.44;5094792;28;20201;-46
2023/06/23 04:08:09;;;;;;;11.50;9.65;;;;;;;20.42;95.63;94972.84;5096935;28;20186;-47
2023/06/23 04:10:38;;;;;;;14.40;10.07;;;;;;;20.52;95.37;94976.75;5095701;28;20657;-45
2023/06/23 04:13:06;;;;;;;15.15;10.50;;;;;;;20.54;94.98;94981.72;5098773;28;20269;-45
2023/06/23 04:15:37;;;;;;;18.48;10.70;;;;;;;20.56;95.39;94987.56;5099624;28;20200;-46
2023/06/23 04:18:07;;;;;;;15.00;11.02;;;;;;;20.59;95.62;94994.16;5099865;28;20194;-49
2023/06/23 04:20:35;;;;;;;14.02;11.45;;;;;;;20.64;95.80;94989.16;5095938;28;20903;-46
2023/06/23 04:23:05;;;;;;;17.90;11.75;;;;;;;20.73;95.86;94994.03;5096744;28;20194;-47
2023/06/23 04:25:32;;;;;;;15.15;11.35;;;;;;;20.84;95.82;94989.28;5093497;28;20295;-48
2023/06/23 04:28:05;;;;;;;23.98;13.65;;;;;;;20.91;95.83;94987.50;5092560;28;20232;-46
2023/06/23 04:30:35;;;;;;;19.98;13.40;;;;;;;21.00;95.48;94999.34;5090860;28;20189;-45
2023/06/23 04:33:02;;;;;;;23.83;14.25;;;;;;;21.04;95.53;95000.56;5090029;28;20558;-45
2023/06/23 04:35:29;;;;;;;18.48;13.63;;;;;;;21.09;95.73;94992.19;5093858;28;20186;-47
2023/06/23 04:38:00;;;;;;;22.60;13.20;;;;;;;21.19;95.61;94993.41;5092458;28;20567;-45
2023/06/23 04:40:33;;;;;;;19.85;14.15;;;;;;;21.18;95.64;94983.19;5089250;28;20328;-46
2023/06/23 04:43:09;;;;;;;24.02;15.60;;;;;;;21.25;95.72;94982.22;5089752;28;20189;-46
2023/06/23 04:45:41;;;;;;;24.65;15.98;;;;;;;21.33;95.80;94996.06;5089212;28;20595;-46
2023/06/23 04:48:12;;;;;;;18.67;15.10;;;;;;;21.31;95.74;94993.63;5088582;28;20235;-43
2023/06/23 04:50:42;;;;;;;20.38;14.60;;;;;;;21.40;95.46;94989.09;5089442;28;20214;-45
2023/06/23 04:53:17;;;;;;;19.00;16.02;;;;;;;21.53;94.98;94991.72;5089974;28;20219;-46
2023/06/23 04:55:48;;;;;;;20.63;14.30;;;;;;;21.63;94.50;94993.91;5088854;28;20610;-47
2023/06/23 04:58:21;;;;;;;20.30;15.68;;;;;;;21.67;93.78;94997.72;5089524;28;20189;-46
2023/06/23 05:00:51;;;;;;;17.77;15.65;;;;;;;21.74;93.61;94990.72;5088982;28;20614;-47
2023/06/23 05:03:19;;;;;;;20.08;14.50;;;;;;;21.90;93.21;94992.94;5089300;28;20576;-47
2023/06/23 05:05:51;;;;;;;17.92;13.45;;;;;;;22.05;91.95;94993.53;5089441;28;20547;-46
2023/06/23 05:08:19;;;;;;;17.60;14.40;;;;;;;22.17;91.22;94995.56;5089751;28;20189;-46
2023/06/23 05:10:47;;;;;;;18.30;14.75;;;;;;;22.43;90.61;95002.56;5089329;28;20198;-47
2023/06/23 05:13:18;;;;;;;15.98;13.90;;;;;;;22.75;89.60;94999.06;5088777;28;20641;-47
2023/06/23 05:15:47;;;;;;;21.42;14.68;;;;;;;23.14;88.39;95001.75;5088988;28;20714;-47
2023/06/23 05:18:17;;;;;;;17.20;14.02;;;;;;;23.57;86.26;95001.09;5089383;28;20178;-45
2023/06/23 05:20:47;;;;;;;14.80;13.18;;;;;;;23.94;84.00;95005.50;5088969;28;20217;-47
2023/06/23 05:23:16;;;;;;;17.40;12.98;;;;;;;24.34;82.25;95010.38;5089238;28;20190;-46
2023/06/23 05:25:45;;;;;;;15.05;12.90;;;;;;;24.75;79.93;95011.63;5089115;28;20654;-46
2023/06/23 05:28:16;;;;;;;17.05;11.63;;;;;;;25.19;78.28;95014.97;5089466;28;20190;-47
2023/06/23 05:30:47;;;;;;;16.77;11.15;;;;;;;25.67;75.91;95020.16;5087352;28;20193;-45
2023/06/23 05:33:17;;;;;;;13.65;11.20;;;;;;;25.97;74.10;95007.06;5077901;28;20316;-46
2023/06/23 05:35:45;;;;;;;13.20;11.32;;;;;;;26.45;71.18;95008.72;5077713;28;20178;-46
2023/06/23 05:38:15;;;;;;;12.18;10.93;;;;;;;26.71;70.74;95028.41;5091606;28;20186;-45
2023/06/23 05:40:42;;;;;;;12.70;10.75;;;;;;;27.00;70.04;95026.66;5092481;28;20244;-44
2023/06/23 05:43:09;;;;;;;13.73;11.07;;;;;;;27.42;68.94;95028.31;5092940;28;20197;-44
2023/06/23 05:45:36;;;;;;;14.07;10.98;;;;;;;27.75;66.62;95031.00;5092695;28;20185;-45
2023/06/23 05:48:11;;;;;;;17.77;11.15;;;;;;;28.06;65.30;95028.09;5092942;28;20558;-46
2023/06/23 05:50:39;;;;;;;16.20;11.20;;;;;;;28.36;64.29;95027.81;5092584;28;20188;-47
2023/06/23 05:53:08;;;;;;;14.45;12.02;;;;;;;28.46;63.22;95033.22;5092894;28;20189;-47
2023/06/23 05:55:41;;;;;;;13.70;11.65;;;;;;;28.43;62.65;95026.59;5092797;28;20189;-46
2023/06/23 05:58:13;;;;;;;14.43;12.68;;;;;;;28.44;62.53;95035.28;5092758;28;20228;-46
2023/06/23 06:00:46;;;;;;;12.93;10.82;;;;;;;28.49;63.06;95032.72;5092317;28;20222;-47
2023/06/23 06:03:21;;;;;;;12.68;10.57;;;;;;;28.84;62.81;95035.06;5092663;28;20194;-46
2023/06/23 06:05:55;;;;;;;15.48;12.20;;;;;;;29.18;61.59;95034.97;5092480;28;20192;-46
2023/06/23 06:08:24;;;;;;;13.15;11.65;;;;;;;29.18;61.26;95032.34;5092737;28;20680;-47
2023/06/23 06:10:53;;;;;;;12.63;11.30;;;;;;;29.44;60.89;95033.44;5090141;28;20200;-47
2023/06/23 06:13:23;;;;;;;15.43;10.95;;;;;;;29.60;60.22;95034.44;5091337;28;20197;-45
2023/06/23 06:15:52;;;;;;;17.38;12.35;;;;;;;29.76;59.47;95033.53;5091669;28;20194;-47
2023/06/23 06:18:24;;;;;;;14.07;12.50;;;;;;;29.77;59.58;95036.97;5092795;28;20182;-45
2023/06/23 06:20:53;;;;;;;16.20;11.75;;;;;;;29.77;59.87;95035.13;5092664;28;20217;-48
2023/06/23 06:23:22;;;;;;;19.27;12.82;;;;;;;29.76;58.80;95030.09;5092079;28;20190;-47
2023/06/23 06:25:52;;;;;;;15.02;12.60;;;;;;;29.74;59.76;95025.06;5091077;28;20244;-47
2023/06/23 06:28:21;;;;;;;15.60;12.25;;;;;;;29.86;59.02;95028.34;5091528;28;20306;-48
2023/06/23 06:30:50;;;;;;;12.40;11.10;;;;;;;29.84;58.42;95019.91;5091724;28;20207;-45
2023/06/23 06:33:20;;;;;;;14.70;11.52;;;;;;;29.76;59.62;95015.09;5091471;28;20265;-44
2023/06/23 06:35:51;;;;;;;15.15;13.65;;;;;;;29.80;58.06;95018.03;5091239;28;20669;-47
2023/06/23 06:38:20;;;;;;;13.27;11.98;;;;;;;29.54;59.02;94991.38;5091376;28;20510;-46
2023/06/23 06:40:49;;;;;;;19.38;14.15;;;;;;;29.85;58.61;95015.41;5091107;28;20237;-48
2023/06/23 06:43:16;;;;;;;15.73;14.02;;;;;;;29.91;58.74;95019.69;5091547;28;20217;-46
2023/06/23 06:45:45;;;;;;;19.85;14.38;;;;;;;29.83;58.79;95009.59;5091089;28;20189;-45
2023/06/23 06:48:13;;;;;;;16.65;14.88;;;;;;;29.72;59.25;95000.81;5091270;28;20582;-46
2023/06/23 06:50:41;;;;;;;17.05;14.00;;;;;;;29.70;59.17;95005.50;5090895;28;20186;-47
2023/06/23 06:53:10;;;;;;;18.70;14.30;;;;;;;29.74;59.19;94993.44;5091348;28;20186;-47
2023/06/23 06:55:38;;;;;;;17.15;14.60;;;;;;;29.87;59.07;94997.50;5090523;28;20194;-46
2023/06/23 06:58:05;;;;;;;19.38;14.45;;;;;;;30.10;58.57;94991.09;5090664;28;20193;-47
2023/06/23 07:00:32;;;;;;;19.45;13.63;;;;;;;30.32;58.34;94978.63;5090907;28;20205;-47
2023/06/23 07:03:00;;;;;;;16.17;11.02;;;;;;;30.70;56.84;94984.63;5090832;28;20186;-45
2023/06/23 07:05:26;;;;;;;21.27;11.18;;;;;;;30.99;55.15;94971.84;5090903;28;20193;-47
2023/06/23 07:07:53;;;;;;;12.88;11.50;;;;;;;31.21;53.68;94971.63;5090621;28;20196;-46
2023/06/23 07:10:21;;;;;;;17.00;11.68;;;;;;;31.38;53.99;94966.16;5090657;28;20579;-47
2023/06/23 07:12:48;;;;;;;13.50;11.23;;;;;;;31.59;53.80;94973.06;5090688;28;20177;-46
2023/06/23 07:15:15;;;;;;;14.38;12.38;;;;;;;31.80;53.04;94965.94;5090395;28;20197;-46
2023/06/23 07:17:43;;;;;;;13.50;12.20;;;;;;;31.91;52.71;94970.22;5090211;28;20267;-46
2023/06/23 07:20:10;;;;;;;14.88;13.30;;;;;;;32.02;52.03;94970.22;5090456;28;20211;-46
2023/06/23 07:22:37;;;;;;;15.82;13.85;;;;;;;32.15;51.03;94969.66;5090637;28;20266;-48
2023/06/23 07:25:05;;;;;;;14.48;12.05;;;;;;;32.37;51.33;94964.88;5090203;28;20197;-46
2023/06/23 07:27:33;;;;;;;14.13;12.02;;;;;;;32.44;50.23;94962.78;5090043;28;20202;-46
2023/06/23 07:30:00;;;;;;;12.45;10.02;;;;;;;32.53;50.94;94964.88;5090520;28;20656;-47
2023/06/23 07:32:27;;;;;;;10.73;9.57;;;;;;;32.68;49.99;94970.91;5091750;28;20651;-46
2023/06/23 07:34:54;;;;;;;11.32;9.48;;;;;;;32.65;49.52;94970.69;5090608;28;20210;-46
2023/06/23 07:37:21;;;;;;;12.85;9.55;;;;;;;32.68;49.40;94956.88;5089711;28;20642;-47
2023/06/23 07:39:48;;;;;;;12.43;9.82;;;;;;;32.92;49.55;94957.09;5088721;28;20251;-45
2023/06/23 07:42:16;;;;;;;13.98;12.20;;;;;;;32.77;49.41;94965.06;5090059;28;20220;-46
2023/06/23 07:44:44;;;;;;;14.88;12.05;;;;;;;32.12;50.69;94910.13;5089719;28;20190;-46
2023/06/23 07:47:12;;;;;;;14.90;12.32;;;;;;;32.64;50.02;94959.28;5090641;28;20182;-46
2023/06/23 07:49:39;;;;;;;13.50;10.55;;;;;;;32.61;50.34;94943.94;5089678;28;20661;-49
2023/06/23 07:52:08;;;;;;;11.48;10.00;;;;;;;32.70;50.01;94962.72;5089633;28;20193;-46
2023/06/23 07:54:35;;;;;;;12.65;10.52;;;;;;;32.79;49.86;94960.28;5089269;28;20264;-46
2023/06/23 07:57:02;;;;;;;11.85;10.65;;;;;;;32.72;50.59;94961.34;5089508;28;20197;-47
2023/06/23 07:59:29;;;;;;;12.00;10.80;;;;;;;32.58;50.08;94959.56;5088764;28;20194;-45
2023/06/23 08:01:57;;;;;;;16.48;11.32;;;;;;;32.46;50.16;94959.84;5089419;28;20209;-44
2023/06/23 08:04:24;;;;;;;13.10;10.93;;;;;;;32.22;50.68;94960.41;5089452;28;20198;-43
2023/06/23 08:06:50;;;;;;;13.57;12.20;;;;;;;32.25;49.91;94961.72;5089519;28;20707;-45
2023/06/23 08:09:17;;;;;;;12.18;10.95;;;;;;;32.16;50.63;94955.38;5089489;28;20608;-45
2023/06/23 08:11:44;;;;;;;13.10;10.75;;;;;;;32.26;50.82;94957.22;5088888;28;20186;-45
2023/06/23 08:14:11;;;;;;;14.90;11.23;;;;;;;32.36;50.41;94960.63;5089149;28;20664;-46
2023/06/23 08:16:38;;;;;;;11.63;10.43;;;;;;;32.60;49.90;94955.59;5089746;28;20684;-46
2023/06/23 08:19:07;;;;;;;12.63;10.45;;;;;;;32.69;49.75;94961.91;5090386;28;20194;-46
2023/06/23 08:21:35;;;;;;;16.05;12.00;;;;;;;32.69;48.65;94956.63;5088958;28;20212;-46
2023/06/23 08:24:02;;;;;;;16.05;10.38;;;;;;;32.65;49.08;94952.94;5089103;28;20186;-47
2023/06/23 08:26:29;;;;;;;14.65;10.73;;;;;;;32.70;48.93;94952.91;5088417;28;20229;-46
2023/06/23 08:28:55;;;;;;;12.75;10.48;;;;;;;32.75;49.03;94960.03;5087832;28;20190;-48
2023/06/23 08:31:22;;;;;;;13.38;11.48;;;;;;;32.83;48.68;94959.47;5089030;28;20262;-46
2023/06/23 08:33:49;;;;;;;14.15;10.48;;;;;;;32.83;48.84;94956.03;5089056;28;20270;-46
2023/06/23 08:36:17;;;;;;;11.45;10.32;;;;;;;32.73;48.68;94954.22;5088894;28;20216;-46
2023/06/23 08:38:45;;;;;;;15.48;9.90;;;;;;;32.65;48.91;94925.66;5088905;28;20672;-45
2023/06/23 08:41:12;;;;;;;14.88;9.93;;;;;;;32.78;48.55;94950.78;5089399;28;20461;-47
2023/06/23 08:43:45;;;;;;;13.63;11.13;;;;;;;32.61;48.82;94949.22;5090873;28;20201;-46
2023/06/23 08:46:14;;;;;;;12.68;9.65;;;;;;;32.63;49.18;94939.13;5090598;28;20413;-45
2023/06/23 08:48:46;;;;;;;15.23;11.57;;;;;;;32.69;47.85;94940.72;5088812;28;20281;-46
2023/06/23 08:51:14;;;;;;;13.20;10.40;;;;;;;32.47;48.22;94937.59;5088928;28;21918;-45
2023/06/23 08:53:43;;;;;;;14.15;10.23;;;;;;;32.39;47.86;94946.91;5089023;28;20282;-46
2023/06/23 08:56:10;;;;;;;11.88;10.63;;;;;;;32.10;47.79;94944.00;5086099;28;20197;-47
2023/06/23 08:58:37;;;;;;;17.30;10.18;;;;;;;31.90;48.92;94942.16;5088597;28;20664;-45
2023/06/23 09:01:05;;;;;;;11.05;9.60;;;;;;;31.94;49.72;94943.22;5088507;28;20225;-45
2023/06/23 09:03:32;;;;;;;11.82;10.48;;;;;;;32.08;49.84;94932.91;5088799;28;20200;-47
2023/06/23 09:06:00;;;;;;;20.30;11.30;;;;;;;32.16;48.78;94926.25;5088738;28;20584;-45
2023/06/23 09:08:28;;;;;;;9.73;8.82;;;;;;;32.13;48.15;94940.84;5088737;28;20219;-46
2023/06/23 09:10:56;;;;;;;12.38;10.50;;;;;;;32.11;47.62;94926.28;5089351;28;20234;-46
2023/06/23 09:13:27;;;;;;;11.45;9.75;;;;;;;32.06;48.64;94927.06;5092635;28;20572;-45
2023/06/23 09:15:55;;;;;;;12.23;9.25;;;;;;;32.06;47.75;94913.84;5092612;28;20245;-44
2023/06/23 09:18:22;;;;;;;10.07;8.75;;;;;;;32.15;48.67;94919.38;5092393;28;20574;-47
2023/06/23 09:20:50;;;;;;;13.18;9.70;;;;;;;32.21;47.76;94916.47;5092612;28;20201;-46
2023/06/23 09:23:19;;;;;;;11.50;9.77;;;;;;;32.25;47.10;94914.06;5092696;28;20197;-46
2023/06/23 09:25:48;;;;;;;13.63;9.98;;;;;;;32.18;47.64;94921.50;5091993;28;20232;-47
2023/06/23 09:28:27;;;;;;;13.13;9.40;;;;;;;32.27;47.73;94903.22;5092229;28;20258;-46
2023/06/23 09:30:56;;;;;;;11.60;9.43;;;;;;;32.34;48.04;94915.13;5092513;28;20198;-46
2023/06/23 09:33:24;;;;;;;11.77;9.32;;;;;;;32.35;47.72;94915.91;5092589;28;20196;-46
2023/06/23 09:35:52;;;;;;;10.15;9.15;;;;;;;32.32;47.94;94917.22;5092381;28;20193;-50
2023/06/23 09:38:22;;;;;;;10.75;9.10;;;;;;;32.30;46.59;94923.84;5090672;28;20197;-47
2023/06/23 09:40:48;;;;;;;14.95;9.32;;;;;;;32.18;47.23;94918.88;5092123;28;20198;-44
2023/06/23 09:43:16;;;;;;;10.90;8.73;;;;;;;32.21;47.64;94908.53;5092286;28;20222;-44
2023/06/23 09:45:45;;;;;;;11.32;8.80;;;;;;;32.29;47.41;94903.72;5091974;28;20663;-46
2023/06/23 09:48:21;;;;;;;10.68;7.68;;;;;;;32.17;47.46;94910.13;5093489;28;20189;-45
2023/06/23 09:51:00;;;;;;;11.18;7.88;;;;;;;32.24;46.89;94901.91;5092025;28;20189;-46
2023/06/23 09:53:31;;;;;;;9.27;7.82;;;;;;;32.24;46.97;94907.19;5090124;28;20189;-47
2023/06/23 09:55:58;;;;;;;8.15;7.13;;;;;;;32.26;46.41;94909.59;5090764;28;20272;-44
2023/06/23 09:58:29;;;;;;;12.35;7.72;;;;;;;32.23;46.58;94906.41;5091293;28;20233;-46
2023/06/23 10:01:02;;;;;;;12.18;8.20;;;;;;;32.20;46.64;94909.56;5092538;28;20189;-46
2023/06/23 10:03:30;;;;;;;9.07;8.18;;;;;;;32.04;47.06;94883.41;5089655;28;20232;-47
2023/06/23 10:05:58;;;;;;;8.55;7.72;;;;;;;32.14;46.78;94904.56;5089538;28;20182;-45
2023/06/23 10:08:26;;;;;;;10.25;8.50;;;;;;;32.23;47.22;94902.97;5091544;28;20215;-45
2023/06/23 10:10:53;;;;;;;9.98;8.25;;;;;;;32.09;46.92;94899.28;5091543;28;20190;-45
2023/06/23 10:13:21;;;;;;;12.43;8.07;;;;;;;31.98;46.16;94888.72;5091580;28;20202;-46
2023/06/23 10:15:48;;;;;;;11.52;7.68;;;;;;;31.78;46.22;94867.56;5092580;28;20676;-46
2023/06/23 10:18:17;;;;;;;8.43;7.60;;;;;;;31.89;47.37;94879.72;5092207;28;20190;-46
2023/06/23 10:20:45;;;;;;;11.63;7.47;;;;;;;31.88;45.92;94880.00;5091681;28;20227;-45
2023/06/23 10:23:14;;;;;;;9.70;8.25;;;;;;;31.81;46.46;94879.44;5090613;28;20351;-46
2023/06/23 10:25:41;;;;;;;10.95;8.32;;;;;;;31.55;47.17;94858.31;5091121;28;20286;-47
2023/06/23 10:28:11;;;;;;;9.20;7.47;;;;;;;31.72;47.40;94879.97;5091492;28;20205;-44
2023/06/23 10:30:40;;;;;;;10.90;7.65;;;;;;;31.64;45.99;94869.94;5091381;28;20587;-47
2023/06/23 10:33:11;;;;;;;12.07;8.00;;;;;;;31.69;46.87;94879.72;5091327;28;20193;-47
2023/06/23 10:35:40;;;;;;;8.52;7.72;;;;;;;31.77;47.33;94863.31;5091023;28;20197;-46
2023/06/23 10:38:09;;;;;;;9.85;7.28;;;;;;;31.80;46.14;94875.22;5090909;28;20205;-47
2023/06/23 10:40:40;;;;;;;9.18;7.75;;;;;;;31.79;45.85;94865.72;5091188;28;20204;-45
2023/06/23 10:43:08;;;;;;;11.13;7.80;;;;;;;31.63;47.00;94849.06;5088346;28;20221;-47
2023/06/23 10:45:36;;;;;;;14.60;9.02;;;;;;;31.79;47.08;94871.00;5091481;28;20270;-46
2023/06/23 10:48:03;;;;;;;10.75;7.78;;;;;;;31.81;47.26;94864.38;5088690;28;20201;-45
2023/06/23 10:50:31;;;;;;;8.95;7.57;;;;;;;31.85;47.53;94854.88;5090703;28;20266;-45
2023/06/23 10:53:12;;;;;;;8.27;7.47;;;;;;;31.84;47.53;94840.06;5091230;28;20265;-47
2023/06/23 10:55:41;;;;;;;8.40;7.55;;;;;;;32.03;47.11;94844.78;5090861;28;20664;-44
2023/06/23 10:58:09;;;;;;;11.55;7.55;;;;;;;32.14;46.86;94855.09;5091130;28;20194;-45
2023/06/23 11:00:37;;;;;;;11.57;7.68;;;;;;;32.00;47.01;94859.34;5090584;28;20266;-45
2023/06/23 11:03:08;;;;;;;14.98;7.53;;;;;;;31.87;46.96;94852.75;5090709;28;20232;-46
2023/06/23 11:05:36;;;;;;;11.00;7.95;;;;;;;31.82;46.67;94844.00;5090338;28;20193;-46
2023/06/23 11:08:05;;;;;;;13.93;7.50;;;;;;;31.79;46.05;94841.91;5090851;28;20206;-46
2023/06/23 11:11:00;;;;;;;9.68;8.02;;;;;;;31.73;46.81;94843.75;5090556;28;20197;-47
2023/06/23 11:13:35;;;;;;;10.75;7.55;;;;;;;31.70;47.23;94828.44;5027995;28;20210;-46
2023/06/23 11:16:03;;;;;;;9.70;7.65;;;;;;;31.80;46.74;94824.97;5025063;28;20191;-47
2023/06/23 11:18:30;;;;;;;11.57;7.50;;;;;;;31.84;46.43;94828.69;5028024;28;20257;-46
2023/06/23 11:21:03;;;;;;;10.57;7.72;;;;;;;31.83;46.66;94824.44;5028106;28;20207;-46
2023/06/23 11:23:33;;;;;;;10.23;7.97;;;;;;;31.70;46.29;94834.50;5027689;28;20749;-47
2023/06/23 11:25:59;;;;;;;12.52;7.85;;;;;;;31.69;47.25;94824.19;5027671;28;20631;-46
2023/06/23 11:28:34;;;;;;;9.52;7.72;;;;;;;31.72;46.88;94823.66;5027925;28;20330;-46
2023/06/23 11:31:07;;;;;;;9.20;8.35;;;;;;;31.69;45.93;94809.13;5026835;28;20213;-43
2023/06/23 11:33:35;;;;;;;10.32;7.82;;;;;;;31.59;46.04;94809.13;5027225;28;20230;-46